Union City, GA (30291)

1:50 AM EST on December 03, 2016 (GMT -0500)
MesoWest | | Change Station

Elev 994 ft 33.55 °N, 84.57 °W | Updated 30 minutes ago

Mostly Cloudy
Mostly Cloudy
45 °F
Feels Like 45 °F
N
2
Wind Variable Wind from NW
Gusts 4.0 mph

Today
High -- | Low -- °F
--% Chance of Precip.
Yesterday
High -- | Low -- °F
Precip. -- in
Pressure 30.25 in
Visibility 10.0 miles
Clouds Mostly Cloudy 25000 ft
Windchill 45 °F
Dew Point 32 °F
Humidity 60%
Rainfall in
Snow Depth Not available.
7:26 AM 5:29 PM
Waxing Crescent, 13% visible
METAR KATL 030552Z 31007KT 10SM BKN250 07/01 A3025 RMK AO2 SLP243 T00720011 10111 20067 58001
Pressure 30.25 in
Visibility 10.0 miles
Clouds Mostly Cloudy 25000 ft
Windchill 45 °F
Dew Point 32 °F
Humidity 60%
Rainfall in
Snow Depth Not available.
7:26 AM 5:29 PM
Waxing Crescent, 13% visible
METAR KATL 030552Z 31007KT 10SM BKN250 07/01 A3025 RMK AO2 SLP243 T00720011 10111 20067 58001

10-Day Weather Forecast

Almanac

Astronomy

Dec. 03, 2016 Rise Set
Actual Time
Civil Twilight
Nautical Twilight
Astronomical Twilight
Moon
Length of Visible Light
Length of Day
Tomorrow will be .
, % of the Moon is Illuminated

Today's Extremes

State Highs State Lows

Community

WunderPhotos

Upload Photos

1,955,432 photos uploaded!

WunderBlog® & News

Nearby

Air Quality

  Air Quality AQ Index Pollutant
Not available.

Snow Depth

Station Depth Elevation

Earthquake Activity

City Distance Mag. Time & Date
Minimum magnitude displayed is 2.5.

Coastal Water Temperatures

Place Temperature

Stations

Nearby Weather Stations

Station Location Temp. Windchill Dew Point Humidity Wind Precip. Elev Updated Type
                   

Watches & Warnings

There are currently no watches in effect.